createdAt,value
2022-12-11T00:00:32.794Z,12.80
2022-12-11T00:02:15.245Z,10.20
2022-12-11T00:03:19.568Z,11.50
2022-12-11T00:04:24.024Z,13.40
2022-12-11T00:05:28.065Z,12.60
2022-12-11T00:06:32.064Z,12.90
2022-12-11T00:07:35.991Z,12.70
2022-12-11T00:08:39.871Z,12.20
2022-12-11T00:09:43.961Z,12.10
2022-12-11T00:10:49.923Z,11.80
2022-12-11T00:11:54.081Z,12.60
2022-12-11T00:12:58.436Z,14.40
2022-12-11T00:14:02.950Z,10.70
2022-12-11T00:15:07.760Z,12.90
2022-12-11T00:16:12.540Z,12.30
2022-12-11T00:17:16.517Z,12.40
2022-12-11T00:18:20.443Z,11.50
2022-12-11T00:19:24.728Z,12.30
2022-12-11T00:20:28.520Z,11.60
2022-12-11T00:21:33.075Z,12.70
2022-12-11T00:22:37.289Z,12.20
2022-12-11T00:23:41.881Z,13.70
2022-12-11T00:24:46.395Z,12.50
2022-12-11T00:25:50.475Z,11.80
2022-12-11T00:26:54.649Z,12.80
2022-12-11T00:27:58.663Z,12.10
2022-12-11T00:29:02.602Z,14.20
2022-12-11T00:30:07.191Z,12.40
2022-12-11T00:31:18.882Z,12.70
2022-12-11T00:32:22.977Z,13.50
2022-12-11T00:33:27.194Z,11.30
2022-12-11T00:34:31.307Z,12.50
2022-12-11T00:35:42.541Z,13.20
2022-12-11T00:36:46.506Z,11.90
2022-12-11T00:37:50.452Z,13.10
2022-12-11T00:38:54.956Z,11.50
2022-12-11T00:39:58.812Z,12.00
2022-12-11T00:41:02.943Z,13.70
2022-12-11T00:42:07.856Z,12.50
2022-12-11T00:43:12.505Z,10.90
2022-12-11T00:44:16.407Z,13.80
2022-12-11T00:45:20.321Z,14.00
2022-12-11T00:46:24.376Z,12.90
2022-12-11T00:47:28.443Z,12.20
2022-12-11T00:48:32.485Z,12.20
2022-12-11T00:49:36.427Z,12.80
2022-12-11T00:50:40.730Z,12.70
2022-12-11T00:51:44.656Z,12.70
2022-12-11T00:52:48.562Z,11.90
2022-12-11T00:53:52.838Z,12.80
2022-12-11T00:54:56.638Z,12.90
2022-12-11T00:56:00.501Z,12.50
2022-12-11T00:57:04.336Z,12.30
2022-12-11T00:58:08.320Z,12.60
2022-12-11T00:59:12.190Z,12.00
2022-12-11T01:00:16.436Z,12.10
2022-12-11T01:01:23.103Z,14.50
2022-12-11T01:02:27.104Z,12.50
2022-12-11T01:03:31.173Z,13.10
2022-12-11T01:04:36.641Z,13.20
2022-12-11T01:05:40.919Z,12.30
2022-12-11T01:06:45.001Z,13.10
2022-12-11T01:07:49.261Z,11.20
2022-12-11T01:09:13.510Z,12.20
2022-12-11T01:10:26.754Z,13.40
2022-12-11T01:11:30.610Z,13.70
2022-12-11T01:12:34.536Z,12.20
2022-12-11T01:13:39.640Z,11.90
2022-12-11T01:14:43.430Z,13.00
2022-12-11T01:15:47.283Z,15.00
2022-12-11T01:16:51.272Z,14.00
2022-12-11T01:17:55.645Z,13.70
2022-12-11T01:19:00.339Z,12.20
2022-12-11T01:21:12.354Z,10.40
2022-12-11T01:22:16.168Z,12.20
2022-12-11T01:23:20.234Z,13.20
2022-12-11T01:24:24.715Z,13.80
2022-12-11T01:25:28.927Z,14.60
2022-12-11T01:26:32.813Z,17.00
2022-12-11T01:27:38.287Z,14.10
2022-12-11T01:28:43.088Z,12.30
2022-12-11T01:29:47.027Z,12.80
2022-12-11T01:30:50.954Z,15.30
2022-12-11T01:31:54.831Z,13.40
2022-12-11T01:32:58.887Z,13.70
2022-12-11T01:34:02.903Z,14.10
2022-12-11T01:35:08.818Z,15.40
2022-12-11T01:36:19.264Z,13.70
2022-12-11T01:37:23.218Z,14.20
2022-12-11T01:38:27.071Z,15.90
2022-12-11T01:39:31.696Z,13.00
2022-12-11T01:40:35.497Z,13.00
2022-12-11T01:41:39.256Z,14.50
2022-12-11T01:42:43.670Z,12.60
2022-12-11T01:43:57.783Z,14.10
2022-12-11T01:45:32.416Z,14.80
2022-12-11T01:46:36.827Z,12.10
2022-12-11T01:47:40.830Z,14.30
2022-12-11T01:48:44.704Z,13.70
2022-12-11T01:49:48.578Z,13.50
2022-12-11T01:50:55.439Z,12.30
2022-12-11T01:52:06.153Z,11.20
2022-12-11T01:53:14.506Z,12.10
2022-12-11T01:54:22.869Z,11.20
2022-12-11T01:55:27.054Z,10.70
2022-12-11T01:56:34.131Z,11.50
2022-12-11T01:57:41.311Z,12.70
2022-12-11T01:58:57.583Z,13.40
2022-12-11T02:00:01.568Z,12.40
2022-12-11T02:01:05.760Z,13.50
2022-12-11T02:02:20.505Z,15.90
2022-12-11T02:03:25.015Z,12.30
2022-12-11T02:04:29.942Z,12.90
2022-12-11T02:05:33.932Z,13.30
2022-12-11T02:06:39.057Z,13.10
2022-12-11T02:07:52.563Z,12.30
2022-12-11T02:08:56.533Z,14.20
2022-12-11T02:10:00.462Z,12.00
2022-12-11T02:11:21.624Z,13.20
2022-12-11T02:12:41.617Z,12.30
2022-12-11T02:14:07.336Z,12.20
2022-12-11T02:15:35.381Z,10.60
2022-12-11T02:16:50.352Z,11.90
2022-12-11T02:18:15.012Z,10.60
2022-12-11T02:19:48.393Z,11.70
2022-12-11T02:21:02.977Z,11.30
2022-12-11T02:22:11.451Z,10.80
2022-12-11T02:23:36.435Z,12.10
2022-12-11T02:25:04.725Z,11.10
2022-12-11T02:26:35.833Z,9.80
2022-12-11T02:28:20.977Z,12.30
2022-12-11T02:29:50.149Z,10.00
2022-12-11T02:31:01.845Z,11.90
2022-12-11T02:32:25.240Z,10.30
2022-12-11T02:33:38.978Z,11.70
2022-12-11T02:35:10.223Z,11.30
2022-12-11T02:36:16.261Z,11.10
2022-12-11T02:37:23.863Z,12.60
2022-12-11T02:38:37.519Z,12.40
2022-12-11T02:39:43.450Z,11.50
2022-12-11T02:40:49.552Z,11.90
2022-12-11T02:41:55.156Z,11.50
2022-12-11T02:43:02.830Z,11.40
2022-12-11T02:44:07.268Z,12.80
2022-12-11T02:45:13.319Z,11.70
2022-12-11T02:46:20.151Z,11.90
2022-12-11T02:47:26.843Z,11.40
2022-12-11T02:48:32.439Z,11.60
2022-12-11T02:49:36.445Z,10.80
2022-12-11T02:50:44.543Z,11.80
2022-12-11T02:51:50.027Z,12.90
2022-12-11T02:52:56.974Z,12.20
2022-12-11T02:54:01.639Z,12.10
2022-12-11T02:55:07.867Z,12.80
2022-12-11T02:56:18.162Z,11.30
2022-12-11T02:57:35.924Z,11.30
2022-12-11T02:58:48.442Z,11.80
2022-12-11T02:59:52.784Z,12.00
2022-12-11T03:00:57.032Z,12.50
2022-12-11T03:02:01.544Z,11.30
2022-12-11T03:03:06.075Z,11.20
2022-12-11T03:04:10.172Z,12.30
2022-12-11T03:05:15.391Z,11.50
2022-12-11T03:06:23.428Z,11.60
2022-12-11T03:07:34.223Z,13.40
2022-12-11T03:08:38.146Z,11.90
2022-12-11T03:09:44.433Z,11.30
2022-12-11T03:10:48.252Z,11.90
2022-12-11T03:11:52.331Z,13.90
2022-12-11T03:12:58.415Z,12.00
2022-12-11T03:14:05.750Z,12.90
2022-12-11T03:15:14.519Z,11.00
2022-12-11T03:16:35.072Z,11.30
2022-12-11T03:18:03.054Z,10.90
2022-12-11T03:19:19.217Z,9.90
2022-12-11T03:20:43.828Z,11.50
2022-12-11T03:21:54.858Z,10.20
2022-12-11T03:23:10.720Z,10.30
2022-12-11T03:24:28.624Z,11.80
2022-12-11T03:25:54.775Z,12.10
2022-12-11T03:27:09.537Z,10.50
2022-12-11T03:28:56.513Z,10.30
2022-12-11T03:30:04.853Z,11.00
2022-12-11T03:31:13.539Z,11.30
2022-12-11T03:32:24.512Z,11.50
2022-12-11T03:33:35.857Z,11.60
2022-12-11T03:34:45.050Z,11.00
2022-12-11T03:35:54.734Z,11.50
2022-12-11T03:37:00.844Z,11.40
2022-12-11T03:38:16.295Z,11.10
2022-12-11T03:39:32.294Z,12.50
2022-12-11T03:40:39.742Z,11.80
2022-12-11T03:41:46.786Z,11.80
2022-12-11T03:42:53.546Z,12.50
2022-12-11T03:43:58.978Z,12.30
2022-12-11T03:45:04.904Z,12.70
2022-12-11T03:46:09.982Z,13.60
2022-12-11T03:47:18.252Z,11.80
2022-12-11T03:48:25.260Z,12.40
2022-12-11T03:49:33.556Z,11.10
2022-12-11T03:50:37.982Z,13.30
2022-12-11T03:51:43.071Z,11.10
2022-12-11T03:52:48.117Z,12.70
2022-12-11T03:53:52.531Z,12.50
2022-12-11T03:55:01.093Z,11.20
2022-12-11T03:56:07.893Z,12.30
2022-12-11T03:57:15.113Z,11.90
2022-12-11T03:58:18.825Z,11.80
2022-12-11T03:59:22.817Z,13.20
2022-12-11T04:00:26.766Z,14.10
2022-12-11T04:01:30.893Z,12.90
2022-12-11T04:02:35.029Z,13.00
2022-12-11T04:03:39.298Z,13.10
2022-12-11T04:04:43.254Z,12.40
2022-12-11T04:05:49.894Z,13.50
2022-12-11T04:06:53.688Z,15.10
2022-12-11T04:07:57.488Z,12.30
2022-12-11T04:09:01.234Z,12.30
2022-12-11T04:10:05.452Z,13.40
2022-12-11T04:11:29.093Z,13.00
2022-12-11T04:12:32.984Z,11.50
2022-12-11T04:13:37.519Z,12.60
2022-12-11T04:14:59.718Z,13.90
2022-12-11T04:16:03.443Z,12.80
2022-12-11T04:17:07.306Z,11.30
2022-12-11T04:18:29.426Z,12.60
2022-12-11T04:19:51.669Z,11.80
2022-12-11T04:21:28.474Z,12.70
2022-12-11T04:22:51.062Z,11.60
2022-12-11T04:24:13.614Z,11.00
2022-12-11T04:25:17.439Z,11.10
2022-12-11T04:26:21.485Z,11.40
2022-12-11T04:27:43.947Z,11.00
2022-12-11T04:28:48.896Z,12.00
2022-12-11T04:29:52.596Z,12.60
2022-12-11T04:30:56.429Z,12.30
2022-12-11T04:32:00.285Z,11.60
2022-12-11T04:33:04.243Z,12.40
2022-12-11T04:34:08.197Z,10.40
2022-12-11T04:35:13.170Z,13.30
2022-12-11T04:36:17.281Z,12.00
2022-12-11T04:37:21.046Z,12.80
2022-12-11T04:38:25.271Z,11.60
2022-12-11T04:39:28.996Z,11.30
2022-12-11T04:40:32.746Z,11.80
2022-12-11T04:41:38.888Z,11.60
2022-12-11T04:42:43.079Z,11.80
2022-12-11T04:43:46.831Z,11.30
2022-12-11T04:44:50.841Z,11.30
2022-12-11T04:46:15.975Z,11.50
2022-12-11T04:47:19.905Z,12.20
2022-12-11T04:48:23.655Z,11.50
2022-12-11T04:49:27.396Z,11.80
2022-12-11T04:50:31.126Z,11.40
2022-12-11T04:51:34.898Z,11.80
2022-12-11T04:52:38.822Z,10.90
2022-12-11T04:53:43.047Z,11.50
2022-12-11T04:54:46.893Z,12.00
2022-12-11T04:55:51.238Z,11.20
2022-12-11T04:56:55.019Z,11.10
2022-12-11T04:57:58.720Z,11.10
2022-12-11T04:59:02.399Z,11.60
2022-12-11T05:00:09.738Z,12.50
2022-12-11T05:01:19.240Z,11.30
2022-12-11T05:02:23.165Z,10.00
2022-12-11T05:03:27.057Z,11.70
2022-12-11T05:04:35.135Z,12.20
2022-12-11T05:05:39.239Z,12.00
2022-12-11T05:06:43.064Z,12.20
2022-12-11T05:07:46.985Z,12.30
2022-12-11T05:08:50.819Z,12.20
2022-12-11T05:09:54.575Z,12.30
2022-12-11T05:11:03.871Z,12.90
2022-12-11T05:12:07.695Z,12.70
2022-12-11T05:13:11.416Z,13.80
2022-12-11T05:14:15.221Z,12.00
2022-12-11T05:15:19.166Z,13.10
2022-12-11T05:16:23.043Z,12.70
2022-12-11T05:17:26.954Z,12.10
2022-12-11T05:18:30.817Z,13.30
2022-12-11T05:19:34.533Z,12.20
2022-12-11T05:20:38.304Z,13.40
2022-12-11T05:21:42.063Z,12.90
2022-12-11T05:22:45.832Z,12.70
2022-12-11T05:23:49.553Z,12.00
2022-12-11T05:24:53.307Z,13.50
2022-12-11T05:26:00.003Z,12.40
2022-12-11T05:27:03.889Z,13.50
2022-12-11T05:28:07.710Z,13.30
2022-12-11T05:29:11.530Z,14.30
2022-12-11T05:30:15.323Z,13.30
2022-12-11T05:31:22.502Z,13.70
2022-12-11T05:32:26.552Z,13.60
2022-12-11T05:33:31.397Z,15.40
2022-12-11T05:34:35.129Z,14.50
2022-12-11T05:35:38.989Z,16.30
2022-12-11T05:36:42.779Z,13.60
2022-12-11T05:37:46.549Z,14.10
2022-12-11T05:38:51.195Z,14.20
2022-12-11T05:41:00.923Z,12.30
2022-12-11T05:42:04.745Z,12.50
2022-12-11T05:43:08.856Z,12.90
2022-12-11T05:44:13.374Z,13.30
2022-12-11T05:45:17.146Z,14.60
2022-12-11T05:46:23.805Z,12.30
2022-12-11T05:47:27.635Z,13.10
2022-12-11T05:48:31.364Z,12.90
2022-12-11T05:49:35.199Z,12.80
2022-12-11T05:50:38.889Z,12.60
2022-12-11T05:51:44.243Z,14.30
2022-12-11T05:52:48.127Z,12.30
2022-12-11T05:53:53.153Z,13.00
2022-12-11T05:54:57.015Z,12.70
2022-12-11T05:56:03.112Z,11.90
2022-12-11T05:57:06.827Z,15.10
2022-12-11T05:58:10.525Z,13.90
2022-12-11T05:59:14.310Z,13.20
2022-12-11T06:00:18.412Z,14.00
2022-12-11T06:01:24.189Z,13.60
2022-12-11T06:02:28.083Z,12.20
2022-12-11T06:03:31.957Z,13.40
2022-12-11T06:04:35.712Z,13.50
2022-12-11T06:05:41.780Z,13.90
2022-12-11T06:06:45.561Z,15.10
2022-12-11T06:07:49.380Z,12.90
2022-12-11T06:08:54.912Z,15.10
2022-12-11T06:09:58.704Z,14.70
2022-12-11T06:11:03.943Z,13.20
2022-12-11T06:12:07.799Z,14.10
2022-12-11T06:13:11.639Z,13.80
2022-12-11T06:14:15.475Z,13.50
2022-12-11T06:15:19.429Z,14.20
2022-12-11T06:16:24.599Z,14.10
2022-12-11T06:17:28.475Z,14.40
2022-12-11T06:18:36.480Z,12.70
2022-12-11T06:19:40.288Z,12.60
2022-12-11T06:20:44.651Z,15.50
2022-12-11T06:21:48.878Z,13.20
2022-12-11T06:22:52.590Z,15.20
2022-12-11T06:23:58.367Z,13.90
2022-12-11T06:25:02.147Z,13.70
2022-12-11T06:26:07.043Z,13.80
2022-12-11T06:27:10.786Z,14.50
2022-12-11T06:28:14.800Z,13.30
2022-12-11T06:29:18.517Z,13.80
2022-12-11T06:30:22.796Z,13.50
2022-12-11T06:31:42.910Z,12.70
2022-12-11T06:32:47.326Z,15.00
2022-12-11T06:33:51.201Z,12.80
2022-12-11T06:34:55.111Z,13.30
2022-12-11T06:36:10.596Z,12.60
2022-12-11T06:37:14.370Z,12.80
2022-12-11T06:38:18.490Z,13.40
2022-12-11T06:39:22.346Z,15.60
2022-12-11T06:40:26.106Z,13.90
2022-12-11T06:41:30.007Z,13.60
2022-12-11T06:42:33.770Z,13.60
2022-12-11T06:43:39.293Z,13.50
2022-12-11T06:44:42.996Z,12.70
2022-12-11T06:45:46.733Z,13.80
2022-12-11T06:46:50.504Z,16.30
2022-12-11T06:47:54.206Z,14.40
2022-12-11T06:48:57.964Z,16.20
2022-12-11T06:50:02.335Z,14.50
2022-12-11T06:51:07.235Z,13.70
2022-12-11T06:52:15.104Z,13.40
2022-12-11T06:53:22.114Z,13.50
2022-12-11T06:54:27.326Z,15.50
2022-12-11T06:55:31.099Z,15.30
2022-12-11T06:56:34.914Z,14.20
2022-12-11T06:57:38.619Z,16.10
2022-12-11T06:58:44.040Z,13.90
2022-12-11T06:59:48.127Z,13.00
2022-12-11T07:00:51.890Z,13.90
2022-12-11T07:01:55.710Z,14.60
2022-12-11T07:02:59.569Z,13.10
2022-12-11T07:04:03.479Z,14.40
2022-12-11T07:05:07.605Z,13.10
2022-12-11T07:06:11.418Z,14.40
2022-12-11T07:07:16.513Z,13.70
2022-12-11T07:08:20.316Z,12.10
2022-12-11T07:09:24.904Z,13.50
2022-12-11T07:11:32.858Z,11.50
2022-12-11T07:12:36.989Z,13.60
2022-12-11T07:13:42.207Z,14.40
2022-12-11T07:14:46.132Z,15.20
2022-12-11T07:15:49.983Z,14.30
2022-12-11T07:16:53.958Z,16.70
2022-12-11T07:17:57.782Z,13.30
2022-12-11T07:19:01.579Z,13.10
2022-12-11T07:20:06.038Z,13.40
2022-12-11T07:21:12.578Z,13.70
2022-12-11T07:22:16.345Z,14.20
2022-12-11T07:23:20.190Z,14.10
2022-12-11T07:24:24.944Z,12.70
2022-12-11T07:25:28.743Z,13.60
2022-12-11T07:26:32.642Z,13.60
2022-12-11T07:27:36.476Z,13.60
2022-12-11T07:28:40.747Z,13.50
2022-12-11T07:29:44.986Z,14.50
2022-12-11T07:30:49.127Z,14.50
2022-12-11T07:31:53.150Z,16.60
2022-12-11T07:32:57.133Z,15.70
2022-12-11T07:34:04.787Z,12.50
2022-12-11T07:35:10.084Z,14.00
2022-12-11T07:36:16.134Z,12.90
2022-12-11T07:37:20.139Z,15.20
2022-12-11T07:38:24.027Z,14.20
2022-12-11T07:39:27.922Z,14.00
2022-12-11T07:40:33.131Z,14.20
2022-12-11T07:41:37.329Z,14.20
2022-12-11T07:42:47.246Z,15.40
2022-12-11T07:43:51.226Z,14.60
2022-12-11T07:44:54.971Z,13.70
2022-12-11T07:46:02.890Z,14.50
2022-12-11T07:47:06.657Z,14.20
2022-12-11T07:48:10.807Z,15.30
2022-12-11T07:49:14.615Z,13.50
2022-12-11T07:50:19.706Z,13.80
2022-12-11T07:51:29.064Z,14.00
2022-12-11T07:52:34.192Z,13.70
2022-12-11T07:53:38.957Z,13.40
2022-12-11T07:54:42.713Z,14.80
2022-12-11T07:55:46.484Z,13.70
2022-12-11T07:56:53.746Z,14.20
2022-12-11T07:57:57.900Z,15.00
2022-12-11T07:59:03.948Z,14.20
2022-12-11T08:00:08.571Z,14.70
2022-12-11T08:01:22.338Z,14.50
2022-12-11T08:02:26.273Z,13.60
2022-12-11T08:03:30.222Z,13.80
2022-12-11T08:04:33.974Z,13.90
2022-12-11T08:05:37.816Z,13.40
2022-12-11T08:06:42.729Z,14.40
2022-12-11T08:07:47.026Z,14.10
2022-12-11T08:08:50.906Z,13.40
2022-12-11T08:09:54.666Z,14.70
2022-12-11T08:11:02.965Z,14.50
2022-12-11T08:12:06.810Z,14.00
2022-12-11T08:13:11.317Z,13.90
2022-12-11T08:16:22.961Z,12.20
2022-12-11T08:17:31.005Z,14.90
2022-12-11T08:18:38.709Z,13.20
2022-12-11T08:19:42.606Z,14.20
2022-12-11T08:20:46.472Z,13.90
2022-12-11T08:21:50.357Z,14.70
2022-12-11T08:22:58.913Z,15.00
2022-12-11T08:24:03.056Z,16.00
2022-12-11T08:25:07.330Z,14.90
2022-12-11T08:26:14.631Z,14.20
2022-12-11T08:27:18.471Z,13.80
2022-12-11T08:28:23.454Z,15.30
2022-12-11T08:29:27.280Z,15.40
2022-12-11T08:30:32.359Z,13.60
2022-12-11T08:31:36.203Z,15.30
2022-12-11T08:32:40.376Z,16.10
2022-12-11T08:33:45.181Z,16.10
2022-12-11T08:34:51.123Z,14.20
2022-12-11T08:35:54.900Z,14.80
2022-12-11T08:36:58.706Z,14.80
2022-12-11T08:38:02.383Z,14.10
2022-12-11T08:39:06.211Z,14.90
2022-12-11T08:40:10.914Z,15.30
2022-12-11T08:41:20.179Z,15.20
2022-12-11T08:42:24.293Z,15.60
2022-12-11T08:43:28.000Z,15.40
2022-12-11T08:44:31.815Z,14.20
2022-12-11T08:45:35.897Z,15.90
2022-12-11T08:46:39.703Z,14.60
2022-12-11T08:47:43.453Z,16.10
2022-12-11T08:48:47.205Z,16.20
2022-12-11T08:49:51.067Z,13.80
2022-12-11T08:50:54.971Z,15.80
2022-12-11T08:51:58.789Z,15.40
2022-12-11T08:53:02.776Z,15.30
2022-12-11T08:54:06.639Z,15.50
2022-12-11T08:55:10.714Z,14.10
2022-12-11T08:56:18.454Z,15.30
2022-12-11T08:57:22.937Z,15.40
2022-12-11T08:58:27.104Z,14.30
2022-12-11T08:59:30.970Z,17.30
2022-12-11T09:00:35.398Z,15.40
2022-12-11T09:01:39.504Z,16.90
2022-12-11T09:02:43.415Z,16.70
2022-12-11T09:03:48.479Z,17.50
2022-12-11T09:04:52.234Z,17.70
2022-12-11T09:05:55.995Z,18.10
2022-12-11T09:06:59.675Z,14.70
2022-12-11T09:08:03.538Z,15.80
2022-12-11T09:09:07.401Z,16.90
2022-12-11T09:10:11.087Z,16.40
2022-12-11T09:11:17.677Z,16.20
2022-12-11T09:12:21.626Z,14.30
2022-12-11T09:13:25.360Z,14.90
2022-12-11T09:14:29.395Z,16.00
2022-12-11T09:15:33.294Z,14.00
2022-12-11T09:16:40.599Z,15.40
2022-12-11T09:17:44.760Z,16.50
2022-12-11T09:18:50.495Z,16.20
2022-12-11T09:19:54.348Z,14.70
2022-12-11T09:21:02.932Z,14.70
2022-12-11T09:22:06.818Z,14.20
2022-12-11T09:23:10.521Z,15.80
2022-12-11T09:24:15.551Z,16.30
2022-12-11T09:25:19.588Z,16.30
2022-12-11T09:26:24.042Z,15.20
2022-12-11T09:27:29.176Z,16.40
2022-12-11T09:28:35.026Z,14.90
2022-12-11T09:29:39.470Z,17.40
2022-12-11T09:30:43.333Z,16.80
2022-12-11T09:31:48.523Z,16.60
2022-12-11T09:32:53.155Z,16.00
2022-12-11T09:35:02.080Z,13.40
2022-12-11T09:36:06.623Z,15.10
2022-12-11T09:37:11.363Z,14.00
2022-12-11T09:38:15.312Z,16.80
2022-12-11T09:39:19.136Z,15.80
2022-12-11T09:40:23.472Z,15.80
2022-12-11T09:41:38.741Z,15.60
2022-12-11T09:42:56.279Z,15.20
2022-12-11T09:44:14.346Z,16.50
2022-12-11T09:45:18.646Z,14.30
2022-12-11T09:46:24.643Z,14.50
2022-12-11T09:47:42.614Z,15.70
2022-12-11T09:48:48.606Z,15.20
2022-12-11T09:50:23.256Z,14.50
2022-12-11T09:51:36.510Z,14.00
2022-12-11T09:53:04.564Z,14.90
2022-12-11T09:54:13.426Z,12.50
2022-12-11T09:55:21.049Z,12.60
2022-12-11T09:56:33.994Z,15.60
2022-12-11T09:57:43.768Z,15.80
2022-12-11T09:59:20.589Z,15.10
2022-12-11T10:00:41.132Z,14.40
2022-12-11T10:02:03.282Z,15.20
2022-12-11T10:03:20.119Z,14.70
2022-12-11T10:05:08.730Z,14.50
2022-12-11T10:06:28.471Z,13.80
2022-12-11T10:08:00.556Z,16.20
2022-12-11T10:09:25.502Z,14.60
2022-12-11T10:10:54.242Z,15.30
2022-12-11T10:12:17.260Z,15.90
2022-12-11T10:13:40.997Z,16.50
2022-12-11T10:16:14.735Z,13.90
2022-12-11T10:17:23.377Z,15.90
2022-12-11T10:18:29.638Z,14.30
2022-12-11T10:19:33.987Z,15.60
2022-12-11T10:20:40.367Z,17.10
2022-12-11T10:21:45.245Z,16.10
2022-12-11T10:22:51.969Z,16.90
2022-12-11T10:24:00.496Z,18.20
2022-12-11T10:25:14.139Z,16.40
2022-12-11T10:26:20.693Z,15.00
2022-12-11T10:27:31.445Z,19.00
2022-12-11T10:28:36.004Z,19.80
2022-12-11T10:29:40.530Z,17.40
2022-12-11T10:30:57.292Z,16.70
2022-12-11T10:32:02.227Z,18.10
2022-12-11T10:33:12.308Z,17.40
2022-12-11T10:34:33.012Z,16.50
2022-12-11T10:35:43.785Z,18.80
2022-12-11T10:36:49.268Z,16.50
2022-12-11T10:37:58.080Z,16.20
2022-12-11T10:39:03.349Z,16.30
2022-12-11T10:40:08.066Z,17.10
2022-12-11T10:41:14.913Z,17.50
2022-12-11T10:42:20.980Z,17.00
2022-12-11T10:43:34.703Z,16.50
2022-12-11T10:44:38.446Z,17.40
2022-12-11T10:45:53.958Z,17.50
2022-12-11T10:47:18.379Z,15.90
2022-12-11T10:48:23.047Z,15.80
2022-12-11T10:49:31.845Z,16.80
2022-12-11T10:50:35.898Z,17.30
2022-12-11T10:51:39.780Z,14.50
2022-12-11T10:52:45.123Z,15.10
2022-12-11T10:53:53.920Z,16.60
2022-12-11T10:55:07.818Z,14.60
2022-12-11T10:56:12.459Z,15.90
2022-12-11T10:57:16.266Z,15.50
2022-12-11T10:58:24.014Z,15.30
2022-12-11T10:59:33.898Z,16.90
2022-12-11T11:00:41.755Z,15.30
2022-12-11T11:01:47.405Z,15.40
2022-12-11T11:02:51.356Z,16.70
2022-12-11T11:03:59.668Z,14.90
2022-12-11T11:05:13.138Z,16.30
2022-12-11T11:06:20.668Z,16.20
2022-12-11T11:07:28.332Z,17.80
2022-12-11T11:08:42.424Z,16.80
2022-12-11T11:09:46.478Z,13.90
2022-12-11T11:10:59.275Z,15.60
2022-12-11T11:12:07.844Z,15.50
2022-12-11T11:13:13.220Z,16.00
2022-12-11T11:14:20.227Z,16.30
2022-12-11T11:15:30.490Z,16.60
2022-12-11T11:16:39.101Z,17.70
2022-12-11T11:17:54.501Z,16.90
2022-12-11T11:19:02.047Z,17.40
2022-12-11T11:20:13.893Z,19.90
2022-12-11T11:21:20.349Z,17.60
2022-12-11T11:22:24.211Z,18.30
2022-12-11T11:23:28.946Z,21.00
2022-12-11T11:25:50.363Z,19.40
2022-12-11T11:27:12.841Z,20.10
2022-12-11T11:28:25.986Z,19.40
2022-12-11T11:29:35.310Z,18.60
2022-12-11T11:30:41.518Z,20.90
2022-12-11T11:31:45.342Z,18.70
2022-12-11T11:32:52.427Z,19.90
2022-12-11T11:34:03.902Z,19.20
2022-12-11T11:35:11.623Z,20.10
2022-12-11T11:36:26.365Z,18.00
2022-12-11T11:37:34.345Z,18.50
2022-12-11T11:38:44.660Z,21.60
2022-12-11T11:39:52.689Z,20.20
2022-12-11T11:41:11.586Z,19.30
2022-12-11T11:42:29.895Z,24.50
2022-12-11T11:43:50.306Z,24.40
2022-12-11T11:45:05.379Z,20.80
2022-12-11T11:46:25.433Z,19.90
2022-12-11T11:47:38.389Z,19.20
2022-12-11T11:48:47.998Z,19.30
2022-12-11T11:50:00.046Z,19.50
2022-12-11T11:51:13.669Z,20.00
2022-12-11T11:52:32.258Z,20.90
2022-12-11T11:53:40.481Z,20.70
2022-12-11T11:54:56.812Z,21.00
2022-12-11T11:56:23.888Z,21.40
2022-12-11T11:57:45.594Z,18.80
2022-12-11T11:59:06.738Z,18.80
2022-12-11T12:00:20.920Z,16.70
2022-12-11T12:01:25.698Z,18.50
2022-12-11T12:02:29.570Z,18.50
2022-12-11T12:03:33.492Z,20.40
2022-12-11T12:04:37.310Z,18.50
2022-12-11T12:05:57.506Z,17.10
2022-12-11T12:07:07.310Z,18.10
2022-12-11T12:08:27.074Z,18.70
2022-12-11T12:09:33.827Z,18.60
2022-12-11T12:10:50.548Z,18.80
2022-12-11T12:12:04.129Z,18.70
2022-12-11T12:15:18.305Z,16.00
2022-12-11T12:16:58.188Z,16.50
2022-12-11T12:18:27.111Z,16.50
2022-12-11T12:19:52.932Z,15.20
2022-12-11T12:21:27.359Z,14.70
2022-12-11T12:22:37.932Z,15.10
2022-12-11T12:24:22.212Z,15.60
2022-12-11T12:25:40.659Z,13.30
2022-12-11T12:27:29.155Z,13.40
2022-12-11T12:28:55.677Z,14.70
2022-12-11T12:30:22.022Z,13.90
2022-12-11T12:31:36.763Z,13.40
2022-12-11T12:33:04.592Z,16.60
2022-12-11T12:34:14.337Z,12.20
2022-12-11T12:35:38.053Z,13.40
2022-12-11T12:37:03.043Z,14.90
2022-12-11T12:38:33.059Z,13.40
2022-12-11T12:41:14.189Z,13.60
2022-12-11T12:42:39.366Z,12.80
2022-12-11T12:43:59.486Z,13.70
2022-12-11T12:45:12.779Z,14.40
2022-12-11T12:46:35.112Z,14.40
2022-12-11T12:47:41.083Z,14.70
2022-12-11T12:48:45.487Z,13.70
2022-12-11T12:49:50.871Z,14.40
2022-12-11T12:50:55.884Z,16.30
2022-12-11T12:52:00.776Z,16.40
2022-12-11T12:53:06.736Z,15.70
2022-12-11T12:54:16.548Z,16.70
2022-12-11T12:55:24.949Z,13.20
2022-12-11T12:56:32.232Z,14.30
2022-12-11T12:57:38.520Z,15.10
2022-12-11T12:58:44.957Z,14.80
2022-12-11T12:59:55.395Z,15.80
2022-12-11T13:01:19.259Z,16.40
2022-12-11T13:02:23.562Z,15.40
2022-12-11T13:03:32.227Z,14.20
2022-12-11T13:04:58.484Z,14.70
2022-12-11T13:06:08.197Z,14.30
2022-12-11T13:07:29.822Z,16.00
2022-12-11T13:08:45.950Z,13.10
2022-12-11T13:10:21.704Z,13.80
2022-12-11T13:11:34.116Z,14.20
2022-12-11T13:12:46.447Z,14.40
2022-12-11T13:14:22.346Z,15.10
2022-12-11T13:15:42.597Z,15.70
2022-12-11T13:16:48.742Z,14.30
2022-12-11T13:17:53.171Z,14.00
2022-12-11T13:18:56.971Z,13.80
2022-12-11T13:20:18.954Z,15.10
2022-12-11T13:21:34.351Z,14.70
2022-12-11T13:22:48.826Z,14.90
2022-12-11T13:23:52.647Z,17.40
2022-12-11T13:25:16.760Z,16.10
2022-12-11T13:26:31.943Z,14.70
2022-12-11T13:27:35.679Z,15.40
2022-12-11T13:28:39.562Z,13.60
2022-12-11T13:29:43.462Z,15.40
2022-12-11T13:31:16.924Z,15.80
2022-12-11T13:32:29.925Z,14.20
2022-12-11T13:33:41.446Z,14.30
2022-12-11T13:34:55.381Z,14.50
2022-12-11T13:36:16.901Z,13.50
2022-12-11T13:37:41.228Z,15.40
2022-12-11T13:38:54.960Z,14.00
2022-12-11T13:40:00.166Z,13.70
2022-12-11T13:41:10.218Z,14.40
2022-12-11T13:42:33.062Z,15.00
2022-12-11T13:43:41.893Z,15.30
2022-12-11T13:44:48.345Z,15.10
2022-12-11T13:45:56.724Z,15.70
2022-12-11T13:47:03.110Z,15.60
2022-12-11T13:48:36.851Z,16.30
2022-12-11T13:49:43.603Z,15.50
2022-12-11T13:50:48.374Z,16.00
2022-12-11T13:51:58.383Z,16.10
2022-12-11T13:53:03.308Z,14.10
2022-12-11T13:54:17.945Z,14.90
2022-12-11T13:55:33.180Z,15.20
2022-12-11T13:56:37.010Z,16.40
2022-12-11T13:57:46.160Z,15.30
2022-12-11T13:58:50.062Z,16.20
2022-12-11T13:59:56.840Z,15.10
2022-12-11T14:01:00.602Z,14.40
2022-12-11T14:02:14.875Z,14.40
2022-12-11T14:03:19.027Z,15.10
2022-12-11T14:04:23.957Z,15.00
2022-12-11T14:05:28.515Z,15.30
2022-12-11T14:06:34.664Z,15.40
2022-12-11T14:07:42.605Z,15.60
2022-12-11T14:08:51.771Z,15.30
2022-12-11T14:10:01.980Z,15.70
2022-12-11T14:11:06.489Z,16.90
2022-12-11T14:12:19.891Z,15.80
2022-12-11T14:13:27.231Z,14.50
2022-12-11T14:15:03.465Z,16.00
2022-12-11T14:16:07.761Z,12.80
2022-12-11T14:17:17.738Z,14.20
2022-12-11T14:18:24.557Z,13.90
2022-12-11T14:19:29.370Z,13.90
2022-12-11T14:20:34.406Z,14.70
2022-12-11T14:21:38.205Z,14.90
2022-12-11T14:22:41.979Z,14.10
2022-12-11T14:23:52.928Z,14.60
2022-12-11T14:25:03.603Z,17.00
2022-12-11T14:26:18.966Z,12.60
2022-12-11T14:27:24.140Z,13.30
2022-12-11T14:28:30.651Z,12.90
2022-12-11T14:29:34.451Z,15.40
2022-12-11T14:30:44.969Z,14.30
2022-12-11T14:31:48.814Z,12.90
2022-12-11T14:32:56.844Z,14.50
2022-12-11T14:34:14.399Z,13.50
2022-12-11T14:35:26.960Z,12.30
2022-12-11T14:36:33.094Z,12.10
2022-12-11T14:37:37.189Z,11.50
2022-12-11T14:38:56.511Z,12.00
2022-12-11T14:40:17.160Z,12.20
2022-12-11T14:41:41.027Z,12.20
2022-12-11T14:43:56.079Z,9.70
2022-12-11T14:45:07.332Z,12.10
2022-12-11T14:46:23.835Z,12.40
2022-12-11T14:47:32.431Z,12.30
2022-12-11T14:48:47.987Z,13.10
2022-12-11T14:49:58.793Z,13.00
2022-12-11T14:51:07.174Z,15.30
2022-12-11T14:52:19.997Z,13.60
2022-12-11T14:53:32.811Z,14.90
2022-12-11T14:54:43.718Z,14.40
2022-12-11T14:55:49.860Z,13.00
2022-12-11T14:56:54.499Z,14.60